createdAt,value
2023-06-04T00:00:29.615Z,13.89
2023-06-04T00:02:58.793Z,12.83
2023-06-04T00:05:27.932Z,12.99
2023-06-04T00:07:57.208Z,16.82
2023-06-04T00:10:26.332Z,14.27
2023-06-04T00:12:55.399Z,13.73
2023-06-04T00:15:26.030Z,12.19
2023-06-04T00:17:55.233Z,14.07
2023-06-04T00:20:24.582Z,13.12
2023-06-04T00:22:53.735Z,12.31
2023-06-04T00:25:22.861Z,12.35
2023-06-04T00:27:53.432Z,11.97
2023-06-04T00:30:22.510Z,12.93
2023-06-04T00:32:53.158Z,12.96
2023-06-04T00:35:22.748Z,12.94
2023-06-04T00:37:51.873Z,14.27
2023-06-04T00:40:21.016Z,12.36
2023-06-04T00:42:50.528Z,12.62
2023-06-04T00:45:21.348Z,11.30
2023-06-04T00:47:50.546Z,11.99
2023-06-04T00:50:22.039Z,11.13
2023-06-04T00:52:52.546Z,12.71
2023-06-04T00:55:22.118Z,12.56
2023-06-04T00:57:51.154Z,11.46
2023-06-04T01:00:20.899Z,13.90
2023-06-04T01:02:54.675Z,11.79
2023-06-04T01:05:35.974Z,12.13
2023-06-04T01:08:06.832Z,10.81
2023-06-04T01:10:35.966Z,10.43
2023-06-04T01:13:05.123Z,13.15
2023-06-04T01:15:34.279Z,11.46
2023-06-04T01:18:06.434Z,11.29
2023-06-04T01:20:42.625Z,10.44
2023-06-04T01:23:21.857Z,12.42
2023-06-04T01:25:53.226Z,11.79
2023-06-04T01:28:22.897Z,11.56
2023-06-04T01:30:52.980Z,11.71
2023-06-04T01:33:22.326Z,11.30
2023-06-04T01:35:53.111Z,10.77
2023-06-04T01:38:22.300Z,10.75
2023-06-04T01:40:51.886Z,9.52
2023-06-04T01:43:20.894Z,9.90
2023-06-04T01:45:50.343Z,10.23
2023-06-04T01:48:19.487Z,10.44
2023-06-04T01:50:48.518Z,9.73
2023-06-04T01:53:19.059Z,10.22
2023-06-04T01:55:50.252Z,8.91
2023-06-04T01:58:27.952Z,9.41
2023-06-04T02:00:57.244Z,10.82
2023-06-04T02:03:26.783Z,9.35
2023-06-04T02:05:55.955Z,9.29
2023-06-04T02:08:26.851Z,10.28
2023-06-04T02:10:55.909Z,10.91
2023-06-04T02:13:24.985Z,9.09
2023-06-04T02:15:54.056Z,9.20
2023-06-04T02:18:23.885Z,8.64
2023-06-04T02:20:53.522Z,9.67
2023-06-04T02:23:22.939Z,10.83
2023-06-04T02:25:53.415Z,9.31
2023-06-04T02:28:22.700Z,8.76
2023-06-04T02:30:51.730Z,8.23
2023-06-04T02:33:21.935Z,9.38
2023-06-04T02:35:51.898Z,9.89
2023-06-04T02:38:21.093Z,7.85
2023-06-04T02:40:50.291Z,8.70
2023-06-04T02:43:21.827Z,8.64
2023-06-04T02:45:51.032Z,9.42
2023-06-04T02:48:20.081Z,9.15
2023-06-04T02:50:49.370Z,9.43
2023-06-04T02:53:18.397Z,7.95
2023-06-04T02:55:47.492Z,8.64
2023-06-04T02:58:17.409Z,9.52
2023-06-04T03:00:48.201Z,9.78
2023-06-04T03:03:17.617Z,9.46
2023-06-04T03:05:47.424Z,9.54
2023-06-04T03:08:16.822Z,8.93
2023-06-04T03:10:45.866Z,9.41
2023-06-04T03:13:16.317Z,8.20
2023-06-04T03:15:45.977Z,9.16
2023-06-04T03:18:16.567Z,8.47
2023-06-04T03:20:45.616Z,9.53
2023-06-04T03:23:15.201Z,9.89
2023-06-04T03:25:44.214Z,10.09
2023-06-04T03:28:13.364Z,8.61
2023-06-04T03:30:43.016Z,11.54
2023-06-04T03:33:12.725Z,13.31
2023-06-04T03:35:43.750Z,13.82
2023-06-04T03:38:12.882Z,14.96
2023-06-04T03:40:43.471Z,14.91
2023-06-04T03:43:13.170Z,16.62
2023-06-04T03:45:44.349Z,14.69
2023-06-04T03:48:14.342Z,16.44
2023-06-04T03:50:47.275Z,16.36
2023-06-04T03:53:17.586Z,15.91
2023-06-04T03:55:46.981Z,14.26
2023-06-04T03:58:16.094Z,12.86
2023-06-04T04:00:49.603Z,16.12
2023-06-04T04:03:19.042Z,15.99
2023-06-04T04:05:50.084Z,15.24
2023-06-04T04:08:19.174Z,15.47
2023-06-04T04:10:48.283Z,15.64
2023-06-04T04:13:17.941Z,15.33
2023-06-04T04:15:46.997Z,15.57
2023-06-04T04:18:18.128Z,16.19
2023-06-04T04:20:49.102Z,15.24
2023-06-04T04:23:18.580Z,16.27
2023-06-04T04:25:49.963Z,15.27
2023-06-04T04:28:20.229Z,14.38
2023-06-04T04:30:50.783Z,15.29
2023-06-04T04:33:20.174Z,17.78
2023-06-04T04:35:51.456Z,16.83
2023-06-04T04:38:25.184Z,15.00
2023-06-04T04:41:02.720Z,15.22
2023-06-04T04:43:33.385Z,16.04
2023-06-04T04:46:08.878Z,15.62
2023-06-04T04:48:39.798Z,15.35
2023-06-04T04:51:10.367Z,15.24
2023-06-04T04:53:40.047Z,15.49
2023-06-04T04:56:09.193Z,14.75
2023-06-04T04:58:43.122Z,14.27
2023-06-04T05:01:12.557Z,13.57
2023-06-04T05:03:43.501Z,14.12
2023-06-04T05:06:16.813Z,13.67
2023-06-04T05:08:46.628Z,13.34
2023-06-04T05:11:17.481Z,13.28
2023-06-04T05:13:48.139Z,12.62
2023-06-04T05:16:17.596Z,13.87
2023-06-04T05:18:48.388Z,13.12
2023-06-04T05:21:23.525Z,14.16
2023-06-04T05:23:58.404Z,13.83
2023-06-04T05:26:34.222Z,13.45
2023-06-04T05:29:08.792Z,13.63
2023-06-04T05:31:42.369Z,13.53
2023-06-04T05:34:17.713Z,13.14
2023-06-04T05:36:49.214Z,12.73
2023-06-04T05:39:19.962Z,12.03
2023-06-04T05:41:55.808Z,12.36
2023-06-04T05:44:24.903Z,12.95
2023-06-04T05:46:54.178Z,12.03
2023-06-04T05:49:25.928Z,11.93
2023-06-04T05:51:58.175Z,12.43
2023-06-04T05:54:28.093Z,13.28
2023-06-04T05:56:57.579Z,12.44
2023-06-04T05:59:26.860Z,11.74
2023-06-04T06:01:56.290Z,11.37
2023-06-04T06:04:27.407Z,13.75
2023-06-04T06:06:58.630Z,11.66
2023-06-04T06:09:27.902Z,10.64
2023-06-04T06:11:57.134Z,12.13
2023-06-04T06:14:26.395Z,10.51
2023-06-04T06:16:56.189Z,11.09
2023-06-04T06:19:25.899Z,12.30
2023-06-04T06:21:55.013Z,11.46
2023-06-04T06:24:25.620Z,11.21
2023-06-04T06:26:54.962Z,11.73
2023-06-04T06:29:24.515Z,10.90
2023-06-04T06:31:54.780Z,10.99
2023-06-04T06:34:23.863Z,9.96
2023-06-04T06:36:52.893Z,11.10
2023-06-04T06:39:22.096Z,11.78
2023-06-04T06:41:52.704Z,11.32
2023-06-04T06:44:26.200Z,11.44
2023-06-04T06:46:55.309Z,11.28
2023-06-04T06:49:24.473Z,11.14
2023-06-04T06:51:53.518Z,11.97
2023-06-04T06:54:23.240Z,10.59
2023-06-04T06:56:53.685Z,10.62
2023-06-04T06:59:22.748Z,10.22
2023-06-04T07:01:52.149Z,10.87
2023-06-04T07:04:21.707Z,10.70
2023-06-04T07:06:50.823Z,11.09
2023-06-04T07:09:19.874Z,11.20
2023-06-04T07:11:48.925Z,10.54
2023-06-04T07:14:19.452Z,11.99
2023-06-04T07:16:48.649Z,10.54
2023-06-04T07:19:17.733Z,9.71
2023-06-04T07:21:47.120Z,11.72
2023-06-04T07:24:16.276Z,10.25
2023-06-04T07:26:45.339Z,9.96
2023-06-04T07:29:14.615Z,10.93
2023-06-04T07:31:45.092Z,10.46
2023-06-04T07:34:14.183Z,10.40
2023-06-04T07:36:43.254Z,11.09
2023-06-04T07:39:12.318Z,11.25
2023-06-04T07:41:41.377Z,10.47
2023-06-04T07:44:10.631Z,11.48
2023-06-04T07:46:39.839Z,9.91
2023-06-04T07:49:10.635Z,10.73
2023-06-04T07:51:39.704Z,10.36
2023-06-04T07:54:08.785Z,10.20
2023-06-04T07:56:38.051Z,10.21
2023-06-04T07:59:07.104Z,9.65
2023-06-04T08:01:36.221Z,8.55
2023-06-04T08:04:05.409Z,10.61
2023-06-04T08:06:36.583Z,10.35
2023-06-04T08:09:05.789Z,8.84
2023-06-04T08:11:34.889Z,8.30
2023-06-04T08:14:04.073Z,8.55
2023-06-04T08:16:34.438Z,8.88
2023-06-04T08:19:03.538Z,9.89
2023-06-04T08:21:32.586Z,8.49
2023-06-04T08:24:03.674Z,8.42
2023-06-04T08:26:33.639Z,8.08
2023-06-04T08:29:05.689Z,9.15
2023-06-04T08:31:35.266Z,9.64
2023-06-04T08:34:06.354Z,8.57
2023-06-04T08:36:36.183Z,8.97
2023-06-04T08:39:06.797Z,8.68
2023-06-04T08:41:44.752Z,9.22
2023-06-04T08:44:14.757Z,9.52
2023-06-04T08:46:46.431Z,8.01
2023-06-04T08:49:16.310Z,8.70
2023-06-04T08:51:45.454Z,8.98
2023-06-04T08:54:16.621Z,8.56
2023-06-04T08:56:48.293Z,9.59
2023-06-04T08:59:18.566Z,8.86
2023-06-04T09:01:47.843Z,10.25
2023-06-04T09:04:17.662Z,8.67
2023-06-04T09:06:47.772Z,8.66
2023-06-04T09:09:21.169Z,7.89
2023-06-04T09:11:56.005Z,8.47
2023-06-04T09:14:25.714Z,9.37
2023-06-04T09:16:56.677Z,8.32
2023-06-04T09:19:25.835Z,8.26
2023-06-04T09:21:56.690Z,7.95
2023-06-04T09:24:41.601Z,8.51
2023-06-04T09:27:14.959Z,8.23
2023-06-04T09:29:52.539Z,8.21
2023-06-04T09:32:24.663Z,8.37
2023-06-04T09:34:54.169Z,7.97
2023-06-04T09:37:24.317Z,7.81
2023-06-04T09:39:58.268Z,7.94
2023-06-04T09:42:27.366Z,9.23
2023-06-04T09:44:56.435Z,7.75
2023-06-04T09:47:26.795Z,8.15
2023-06-04T09:49:55.949Z,8.68
2023-06-04T09:52:35.512Z,7.15
2023-06-04T09:55:19.818Z,8.47
2023-06-04T09:57:50.346Z,8.52
2023-06-04T10:00:22.054Z,7.90
2023-06-04T10:02:52.676Z,7.83
2023-06-04T10:05:23.134Z,6.56
2023-06-04T10:07:54.002Z,8.73
2023-06-04T10:10:29.116Z,8.89
2023-06-04T10:13:06.746Z,7.10
2023-06-04T10:15:38.311Z,7.15
2023-06-04T10:18:08.336Z,8.81
2023-06-04T10:20:37.457Z,8.06
2023-06-04T10:23:08.963Z,8.69
2023-06-04T10:25:39.752Z,7.94
2023-06-04T10:28:08.967Z,8.19
2023-06-04T10:30:38.008Z,8.72
2023-06-04T10:33:07.235Z,8.43
2023-06-04T10:35:38.265Z,7.93
2023-06-04T10:38:11.922Z,7.60
2023-06-04T10:40:43.164Z,9.22
2023-06-04T10:43:14.240Z,8.66
2023-06-04T10:45:44.138Z,7.58
2023-06-04T10:48:15.987Z,7.43
2023-06-04T10:50:52.426Z,7.92
2023-06-04T10:53:22.992Z,8.06
2023-06-04T10:55:53.535Z,8.27
2023-06-04T10:58:22.621Z,8.07
2023-06-04T11:00:51.790Z,7.88
2023-06-04T11:03:22.176Z,8.05
2023-06-04T11:05:51.780Z,8.17
2023-06-04T11:08:30.526Z,8.30
2023-06-04T11:11:01.032Z,7.94
2023-06-04T11:13:30.851Z,8.23
2023-06-04T11:15:59.962Z,7.54
2023-06-04T11:18:29.080Z,7.47
2023-06-04T11:21:02.224Z,7.88
2023-06-04T11:23:31.502Z,7.69
2023-06-04T11:26:03.268Z,8.55
2023-06-04T11:28:32.486Z,7.89
2023-06-04T11:31:04.225Z,8.51
2023-06-04T11:33:44.778Z,7.95
2023-06-04T11:36:24.897Z,8.33
2023-06-04T11:38:58.748Z,8.89
2023-06-04T11:41:32.663Z,7.62
2023-06-04T11:44:05.914Z,7.69
2023-06-04T11:46:37.140Z,8.04
2023-06-04T11:49:06.399Z,7.44
2023-06-04T11:51:35.815Z,7.99
2023-06-04T11:54:05.413Z,7.58
2023-06-04T11:56:36.051Z,7.59
2023-06-04T11:59:05.746Z,7.88
2023-06-04T12:01:35.044Z,7.55
2023-06-04T12:04:14.272Z,8.56
2023-06-04T12:06:53.747Z,8.27
2023-06-04T12:09:23.786Z,7.39
2023-06-04T12:12:00.401Z,8.26
2023-06-04T12:14:30.121Z,8.65
2023-06-04T12:17:00.555Z,8.61
2023-06-04T12:19:30.643Z,7.73
2023-06-04T12:22:04.645Z,7.41
2023-06-04T12:24:36.241Z,7.42
2023-06-04T12:27:09.378Z,7.54
2023-06-04T12:29:38.430Z,8.04
2023-06-04T12:32:12.431Z,7.96
2023-06-04T12:34:42.701Z,8.57
2023-06-04T12:37:11.700Z,7.13
2023-06-04T12:39:40.702Z,6.63
2023-06-04T12:42:11.651Z,6.97
2023-06-04T12:44:42.074Z,8.08
2023-06-04T12:47:11.226Z,7.87
2023-06-04T12:49:40.513Z,6.96
2023-06-04T12:52:09.599Z,7.35
2023-06-04T12:54:38.618Z,7.09
2023-06-04T12:57:07.973Z,8.76
2023-06-04T12:59:38.735Z,8.57
2023-06-04T13:02:08.017Z,7.92
2023-06-04T13:04:37.212Z,9.14
2023-06-04T13:07:06.462Z,7.92
2023-06-04T13:09:36.255Z,7.83
2023-06-04T13:12:07.051Z,9.53
2023-06-04T13:14:36.095Z,7.99
2023-06-04T13:17:17.923Z,7.67
2023-06-04T13:19:50.951Z,7.52
2023-06-04T13:22:20.090Z,8.46
2023-06-04T13:24:49.189Z,8.33
2023-06-04T13:27:18.249Z,7.63
2023-06-04T13:29:47.320Z,7.20
2023-06-04T13:32:17.900Z,7.21
2023-06-04T13:34:47.099Z,7.68
2023-06-04T13:37:16.320Z,9.42
2023-06-04T13:39:45.452Z,7.44
2023-06-04T13:42:14.618Z,7.82
2023-06-04T13:44:43.659Z,7.38
2023-06-04T13:47:12.941Z,8.55
2023-06-04T13:49:43.399Z,6.53
2023-06-04T13:52:12.421Z,6.37
2023-06-04T13:54:41.940Z,7.02
2023-06-04T13:57:12.662Z,7.64
2023-06-04T13:59:41.787Z,7.70
2023-06-04T14:02:11.028Z,6.32
2023-06-04T14:04:40.100Z,7.55
2023-06-04T14:07:10.551Z,7.71
2023-06-04T14:09:39.597Z,6.76
2023-06-04T14:12:08.764Z,7.46
2023-06-04T14:14:38.317Z,7.18
2023-06-04T14:17:07.912Z,7.66
2023-06-04T14:19:37.402Z,7.28
2023-06-04T14:22:06.678Z,6.87
2023-06-04T14:24:37.385Z,7.54
2023-06-04T14:27:07.808Z,5.94
2023-06-04T14:29:39.228Z,6.46
2023-06-04T14:32:10.290Z,7.51
2023-06-04T14:34:39.369Z,6.80
2023-06-04T14:37:08.704Z,7.36
2023-06-04T14:39:39.158Z,6.89
2023-06-04T14:42:08.767Z,6.44
2023-06-04T14:44:37.763Z,6.40
2023-06-04T14:47:07.489Z,6.76
2023-06-04T14:49:37.439Z,6.46
2023-06-04T14:52:06.513Z,7.18
2023-06-04T14:54:36.429Z,6.90
2023-06-04T14:57:06.985Z,6.07
2023-06-04T14:59:36.210Z,6.50
2023-06-04T15:02:05.561Z,7.27
2023-06-04T15:04:34.674Z,6.53
2023-06-04T15:07:04.136Z,6.19
2023-06-04T15:09:33.292Z,6.23
2023-06-04T15:12:04.551Z,6.62
2023-06-04T15:14:35.766Z,6.11
2023-06-04T15:17:05.094Z,6.61
2023-06-04T15:19:34.930Z,6.62
2023-06-04T15:22:04.025Z,7.27
2023-06-04T15:24:33.437Z,5.71
2023-06-04T15:27:02.624Z,7.07
2023-06-04T15:29:31.821Z,6.28
2023-06-04T15:32:02.478Z,6.50
2023-06-04T15:34:31.549Z,5.20
2023-06-04T15:37:00.603Z,6.95
2023-06-04T15:39:29.653Z,5.96
2023-06-04T15:41:58.978Z,5.88
2023-06-04T15:44:28.575Z,5.88
2023-06-04T15:46:57.628Z,6.90
2023-06-04T15:49:29.880Z,5.39
2023-06-04T15:51:58.993Z,5.56
2023-06-04T15:54:44.521Z,6.31
2023-06-04T15:57:14.924Z,6.79
2023-06-04T15:59:44.135Z,7.98
2023-06-04T16:02:13.279Z,7.71
2023-06-04T16:04:43.725Z,7.09
2023-06-04T16:07:12.758Z,6.06
2023-06-04T16:09:41.762Z,6.71
2023-06-04T16:12:11.129Z,6.50
2023-06-04T16:14:40.149Z,7.01
2023-06-04T16:17:09.210Z,7.18
2023-06-04T16:19:38.259Z,8.32
2023-06-04T16:22:08.784Z,8.34
2023-06-04T16:24:37.883Z,7.22
2023-06-04T16:27:07.392Z,6.83
2023-06-04T16:29:36.450Z,6.90
2023-06-04T16:32:05.662Z,6.25
2023-06-04T16:34:34.726Z,6.97
2023-06-04T16:37:03.777Z,7.50
2023-06-04T16:39:34.161Z,6.68
2023-06-04T16:42:04.169Z,7.79
2023-06-04T16:44:33.210Z,6.58
2023-06-04T16:47:02.364Z,7.03
2023-06-04T16:49:31.501Z,7.31
2023-06-04T16:52:00.556Z,6.17
2023-06-04T16:54:29.828Z,5.94
2023-06-04T16:57:01.423Z,5.98
2023-06-04T16:59:31.756Z,6.08
2023-06-04T17:02:00.854Z,5.92
2023-06-04T17:04:29.919Z,7.32
2023-06-04T17:06:59.012Z,5.38
2023-06-04T17:09:28.102Z,6.39
2023-06-04T17:11:57.166Z,6.19
2023-06-04T17:14:27.948Z,6.90
2023-06-04T17:16:57.130Z,6.79
2023-06-04T17:19:26.741Z,6.01
2023-06-04T17:21:56.081Z,6.01
2023-06-04T17:24:25.147Z,6.34
2023-06-04T17:26:54.284Z,6.64
2023-06-04T17:29:23.557Z,5.75
2023-06-04T17:31:54.208Z,6.36
2023-06-04T17:34:23.244Z,5.98
2023-06-04T17:36:52.341Z,5.72
2023-06-04T17:39:21.378Z,6.51
2023-06-04T17:41:50.394Z,6.49
2023-06-04T17:44:19.485Z,6.61
2023-06-04T17:46:48.550Z,7.05
2023-06-04T17:49:19.028Z,7.15
2023-06-04T17:51:48.116Z,6.33
2023-06-04T17:54:17.172Z,6.81
2023-06-04T17:56:46.268Z,5.94
2023-06-04T17:59:15.374Z,6.49
2023-06-04T18:01:44.497Z,6.55
2023-06-04T18:04:13.631Z,6.84
2023-06-04T18:06:44.095Z,6.17
2023-06-04T18:09:13.100Z,6.15
2023-06-04T18:11:42.156Z,6.98
2023-06-04T18:14:11.240Z,6.17
2023-06-04T18:16:40.321Z,6.58
2023-06-04T18:19:10.512Z,6.92
2023-06-04T18:21:39.540Z,6.27
2023-06-04T18:24:10.031Z,5.61
2023-06-04T18:26:39.145Z,6.50
2023-06-04T18:29:08.218Z,6.17
2023-06-04T18:31:37.437Z,5.35
2023-06-04T18:34:07.958Z,6.59
2023-06-04T18:36:37.917Z,6.31
2023-06-04T18:39:07.026Z,5.96
2023-06-04T18:41:37.484Z,6.29
2023-06-04T18:44:06.584Z,6.05
2023-06-04T18:46:35.745Z,6.07
2023-06-04T18:49:05.653Z,5.03
2023-06-04T18:51:34.765Z,5.68
2023-06-04T18:54:03.930Z,4.87
2023-06-04T18:56:33.069Z,6.45
2023-06-04T18:59:03.576Z,5.94
2023-06-04T19:01:32.663Z,6.45
2023-06-04T19:04:02.188Z,6.67
2023-06-04T19:06:31.566Z,6.51
2023-06-04T19:09:00.693Z,6.24
2023-06-04T19:11:30.378Z,6.77
2023-06-04T19:13:59.968Z,5.83
2023-06-04T19:16:30.598Z,6.45
2023-06-04T19:18:59.813Z,5.68
2023-06-04T19:21:28.868Z,6.85
2023-06-04T19:23:57.984Z,10.34
2023-06-04T19:26:27.181Z,13.30
2023-06-04T19:28:56.304Z,11.79
2023-06-04T19:31:28.866Z,10.08
2023-06-04T19:34:00.170Z,10.65
2023-06-04T19:36:29.807Z,11.96
2023-06-04T19:38:59.338Z,11.83
2023-06-04T19:41:28.774Z,10.75
2023-06-04T19:43:57.833Z,9.32
2023-06-04T19:46:27.088Z,10.75
2023-06-04T19:48:57.800Z,11.59
2023-06-04T19:51:28.759Z,10.58
2023-06-04T19:53:58.073Z,10.41
2023-06-04T19:56:27.159Z,10.25
2023-06-04T19:58:56.229Z,10.00
2023-06-04T20:01:25.313Z,10.23
2023-06-04T20:03:54.831Z,9.63
2023-06-04T20:06:24.461Z,8.52
2023-06-04T20:08:54.970Z,17.07
2023-06-04T20:11:26.396Z,17.92
2023-06-04T20:13:55.521Z,18.71
2023-06-04T20:16:24.729Z,16.65
2023-06-04T20:18:53.889Z,16.46
2023-06-04T20:21:22.964Z,16.30
2023-06-04T20:23:53.655Z,15.30
2023-06-04T20:26:24.201Z,15.01
2023-06-04T20:28:55.061Z,18.05
2023-06-04T20:31:24.473Z,15.69
2023-06-04T20:33:56.621Z,16.61
2023-06-04T20:36:26.226Z,16.50
2023-06-04T20:38:57.537Z,16.60
2023-06-04T20:41:28.275Z,14.46
2023-06-04T20:43:57.500Z,17.27
2023-06-04T20:46:26.590Z,17.56
2023-06-04T20:48:55.649Z,14.93
2023-06-04T20:51:25.072Z,14.64
2023-06-04T20:53:54.100Z,14.99
2023-06-04T20:56:24.709Z,15.61
2023-06-04T20:58:55.176Z,13.18
2023-06-04T21:01:24.421Z,14.52
2023-06-04T21:03:53.792Z,14.52
2023-06-04T21:06:22.944Z,13.08
2023-06-04T21:08:52.120Z,14.42
2023-06-04T21:11:21.212Z,11.79
2023-06-04T21:13:50.225Z,11.39
2023-06-04T21:16:20.813Z,12.87
2023-06-04T21:18:52.389Z,11.31
2023-06-04T21:21:21.644Z,13.41
2023-06-04T21:23:50.911Z,11.69
2023-06-04T21:26:21.410Z,11.78
2023-06-04T21:28:50.556Z,13.87
2023-06-04T21:31:21.004Z,12.49
2023-06-04T21:33:50.122Z,13.40
2023-06-04T21:36:19.189Z,13.79
2023-06-04T21:38:48.417Z,14.36
2023-06-04T21:41:17.495Z,13.46
2023-06-04T21:43:46.593Z,14.11
2023-06-04T21:46:16.320Z,14.30
2023-06-04T21:48:47.981Z,15.06
2023-06-04T21:51:17.062Z,14.15
2023-06-04T21:53:46.216Z,15.07
2023-06-04T21:56:15.270Z,15.27
2023-06-04T21:58:44.628Z,16.00
2023-06-04T22:01:13.690Z,17.71
2023-06-04T22:03:42.952Z,15.59
2023-06-04T22:06:13.459Z,15.04
2023-06-04T22:08:42.568Z,15.59
2023-06-04T22:11:11.757Z,14.54
2023-06-04T22:13:41.081Z,15.41
2023-06-04T22:16:10.268Z,17.11
2023-06-04T22:18:52.196Z,17.42
2023-06-04T22:21:24.202Z,16.87
2023-06-04T22:23:53.535Z,16.65
2023-06-04T22:26:36.599Z,15.17
2023-06-04T22:29:06.571Z,13.35
2023-06-04T22:31:36.270Z,14.07
2023-06-04T22:34:07.200Z,13.83
2023-06-04T22:36:37.657Z,12.16
2023-06-04T22:39:06.761Z,13.64
2023-06-04T22:41:35.869Z,12.73
2023-06-04T22:44:05.124Z,14.45
2023-06-04T22:46:34.362Z,12.12
2023-06-04T22:49:03.501Z,10.60
2023-06-04T22:51:32.829Z,10.24
2023-06-04T22:54:03.604Z,10.12
2023-06-04T22:56:32.747Z,11.68
2023-06-04T22:59:01.861Z,11.55
2023-06-04T23:01:31.186Z,11.67
2023-06-04T23:04:00.400Z,10.47
2023-06-04T23:06:29.824Z,11.71
2023-06-04T23:08:58.915Z,10.55
2023-06-04T23:11:29.343Z,12.18
2023-06-04T23:13:58.538Z,10.91
2023-06-04T23:16:27.697Z,11.29
2023-06-04T23:18:57.406Z,10.50
2023-06-04T23:21:26.563Z,10.25
2023-06-04T23:23:55.696Z,10.03
2023-06-04T23:26:24.848Z,10.99
2023-06-04T23:28:55.378Z,10.16
2023-06-04T23:31:24.473Z,9.77
2023-06-04T23:33:53.641Z,9.79
2023-06-04T23:36:22.730Z,11.95
2023-06-04T23:38:51.776Z,11.30
2023-06-04T23:41:20.955Z,10.63
2023-06-04T23:43:50.045Z,10.98
2023-06-04T23:46:20.493Z,10.04
2023-06-04T23:48:49.529Z,10.88
2023-06-04T23:51:18.695Z,9.72
2023-06-04T23:53:47.981Z,10.41
2023-06-04T23:56:17.202Z,9.15
2023-06-04T23:58:46.592Z,10.42
